Time;durP1;ratioP1;P1;durP2;ratioP2;P2;SDS_P1;SDS_P2;PMS_P1;PMS_P2;Temp;Humidity;BMP_temperature;BMP_pressure;BME280_temperature;BME280_humidity;BME280_pressure;Samples;Min_cycle;Max_cycle;Signal;HPM_P1;HPM_P2
2022/07/07 00:03:20;;;;;;;2.40;1.80;;;;;;;-142.08;100.00;71646.13;5050268;28;20247;-65
2022/07/07 00:07:03;;;;;;;5.33;2.07;;;;;;;-142.08;100.00;71646.13;5050160;28;20721;-66
2022/07/07 00:10:46;;;;;;;9.83;2.00;;;;;;;-142.08;100.00;71646.13;5045608;28;20221;-65
2022/07/07 00:14:29;;;;;;;3.00;1.70;;;;;;;-142.08;100.00;71646.13;5047218;28;20670;-66
2022/07/07 00:18:12;;;;;;;4.10;2.00;;;;;;;-142.08;100.00;71646.13;5054197;28;20236;-66
2022/07/07 00:21:54;;;;;;;4.83;1.63;;;;;;;-142.08;100.00;71646.13;5049405;28;20225;-65
2022/07/07 00:25:37;;;;;;;6.03;1.80;;;;;;;-142.08;100.00;71646.13;5045895;28;20709;-65
2022/07/07 00:29:20;;;;;;;5.13;1.80;;;;;;;-142.08;100.00;71646.13;5057064;28;20198;-65
2022/07/07 00:33:03;;;;;;;4.67;1.93;;;;;;;-142.08;100.00;71646.13;5050642;28;20231;-65
2022/07/07 00:36:46;;;;;;;3.00;1.60;;;;;;;-142.08;100.00;71646.13;5052588;28;20229;-65
2022/07/07 00:40:28;;;;;;;3.57;1.80;;;;;;;-142.08;100.00;71646.13;5048209;28;20225;-66
2022/07/07 00:44:12;;;;;;;3.20;1.90;;;;;;;-142.08;100.00;71646.13;5051625;28;20573;-65
2022/07/07 00:47:57;;;;;;;3.97;2.10;;;;;;;-142.08;100.00;71646.13;5052142;28;20197;-65
2022/07/07 00:51:42;;;;;;;6.30;2.20;;;;;;;-142.08;100.00;71646.13;5048839;28;20194;-65
2022/07/07 00:55:24;;;;;;;2.37;1.67;;;;;;;-142.08;100.00;71646.13;5056851;28;20648;-65
2022/07/07 00:59:08;;;;;;;3.13;2.10;;;;;;;-142.08;100.00;71646.13;5038572;28;20728;-65
2022/07/07 01:02:51;;;;;;;3.57;2.00;;;;;;;-142.08;100.00;71646.13;5049263;28;20206;-65
2022/07/07 01:06:34;;;;;;;3.53;2.37;;;;;;;-142.08;100.00;71646.13;5046472;28;20773;-65
2022/07/07 01:10:18;;;;;;;5.50;2.00;;;;;;;-142.08;100.00;71646.13;5053674;28;20287;-65
2022/07/07 01:14:01;;;;;;;3.27;1.73;;;;;;;-142.08;100.00;71646.13;5047734;28;20201;-65
2022/07/07 01:17:44;;;;;;;5.63;2.17;;;;;;;-142.08;100.00;71646.13;5054143;28;20268;-65
2022/07/07 01:21:31;;;;;;;4.70;1.87;;;;;;;-142.08;100.00;71646.13;5055794;28;20202;-65
2022/07/07 01:25:14;;;;;;;3.60;1.80;;;;;;;-142.08;100.00;71646.13;5052607;28;20304;-65
2022/07/07 01:28:56;;;;;;;3.80;2.00;;;;;;;-142.08;100.00;71646.13;5053069;28;20197;-65
2022/07/07 01:32:39;;;;;;;5.07;2.20;;;;;;;-142.08;100.00;71646.13;5037511;28;20248;-65
2022/07/07 01:36:22;;;;;;;3.47;2.40;;;;;;;-142.08;100.00;71646.13;5047162;28;20800;-64
2022/07/07 01:40:05;;;;;;;5.80;2.40;;;;;;;-142.08;100.00;71646.13;5053243;28;20256;-66
2022/07/07 01:43:49;;;;;;;6.00;2.20;;;;;;;-142.08;100.00;71646.13;5049802;28;20274;-65
2022/07/07 01:47:31;;;;;;;4.50;2.10;;;;;;;-142.08;100.00;71646.13;5053433;28;20240;-65
2022/07/07 01:51:14;;;;;;;5.13;2.00;;;;;;;-142.08;100.00;71646.13;5053935;28;20255;-65
2022/07/07 01:54:56;;;;;;;4.50;2.00;;;;;;;-142.08;100.00;71646.13;5039029;28;20206;-65
2022/07/07 01:58:38;;;;;;;2.40;1.80;;;;;;;-142.08;100.00;71646.13;5052399;28;20256;-65
2022/07/07 02:02:21;;;;;;;2.23;1.90;;;;;;;-142.08;100.00;71646.13;5044358;28;20627;-65
2022/07/07 02:06:04;;;;;;;3.43;2.13;;;;;;;-142.08;100.00;71646.13;5051741;28;20194;-65
2022/07/07 02:09:47;;;;;;;4.97;2.53;;;;;;;-142.08;100.00;71646.13;5052486;28;20198;-65
2022/07/07 02:13:31;;;;;;;2.70;1.90;;;;;;;-142.08;100.00;71646.13;5045170;28;20201;-65
2022/07/07 02:17:15;;;;;;;3.53;2.40;;;;;;;-142.08;100.00;71646.13;5052184;28;20285;-65
2022/07/07 02:20:58;;;;;;;2.17;1.80;;;;;;;-142.08;100.00;71646.13;5047482;28;20248;-65
2022/07/07 02:24:46;;;;;;;4.90;2.53;;;;;;;-142.08;100.00;71646.13;5055851;28;20220;-65
2022/07/07 02:28:29;;;;;;;3.13;1.80;;;;;;;-142.08;100.00;71646.13;5031066;28;20193;-65
2022/07/07 02:32:12;;;;;;;6.53;2.03;;;;;;;-142.08;100.00;71646.13;5050657;28;20294;-65
2022/07/07 02:35:55;;;;;;;3.30;2.10;;;;;;;-142.08;100.00;71646.13;5053466;28;20252;-65
2022/07/07 02:39:37;;;;;;;5.60;2.10;;;;;;;-142.08;100.00;71646.13;5040202;28;20205;-64
2022/07/07 02:43:20;;;;;;;2.93;1.80;;;;;;;-142.08;100.00;71646.13;5038556;28;20198;-65
2022/07/07 02:47:03;;;;;;;3.60;2.10;;;;;;;-142.08;100.00;71646.13;5051670;28;20221;-65
2022/07/07 02:50:46;;;;;;;6.97;2.10;;;;;;;-142.08;100.00;71646.13;5047806;28;20260;-65
2022/07/07 02:54:28;;;;;;;2.93;1.90;;;;;;;-142.08;100.00;71646.13;5051928;28;20252;-65
2022/07/07 02:58:12;;;;;;;5.33;2.23;;;;;;;-142.08;100.00;71646.13;5053085;28;20284;-65
2022/07/07 03:01:55;;;;;;;4.30;2.33;;;;;;;-142.08;100.00;71646.13;5044825;28;20198;-65
2022/07/07 03:05:38;;;;;;;5.70;2.63;;;;;;;-142.08;100.00;71646.13;5046613;28;20264;-65
2022/07/07 03:09:20;;;;;;;3.33;2.27;;;;;;;-142.08;100.00;71646.13;5041070;28;20582;-65
2022/07/07 03:13:03;;;;;;;4.07;2.33;;;;;;;-142.08;100.00;71646.13;5053069;28;20198;-65
2022/07/07 03:16:46;;;;;;;4.33;2.30;;;;;;;-142.08;100.00;71646.13;5051623;28;20194;-65
2022/07/07 03:20:29;;;;;;;5.40;2.30;;;;;;;-142.08;100.00;71646.13;5056587;28;20286;-65
2022/07/07 03:24:11;;;;;;;10.23;2.30;;;;;;;-142.08;100.00;71646.13;5047712;28;20201;-65
2022/07/07 03:27:54;;;;;;;3.53;1.97;;;;;;;-142.08;100.00;71646.13;5055873;28;20565;-65
2022/07/07 03:31:37;;;;;;;4.93;2.50;;;;;;;-142.08;100.00;71646.13;5045979;28;20608;-65
2022/07/07 03:35:19;;;;;;;4.03;3.13;;;;;;;-142.08;100.00;71646.13;5051382;28;20291;-65
2022/07/07 03:39:02;;;;;;;5.07;2.40;;;;;;;-142.08;100.00;71646.13;5058995;28;20731;-65
2022/07/07 03:42:45;;;;;;;2.53;2.10;;;;;;;-142.08;100.00;71646.13;5039380;28;20615;-65
2022/07/07 03:46:29;;;;;;;2.13;1.83;;;;;;;-142.08;100.00;71646.13;5050701;28;20285;-65
2022/07/07 03:50:12;;;;;;;6.33;2.07;;;;;;;-142.08;100.00;71646.13;5056101;28;20304;-65
2022/07/07 03:53:54;;;;;;;4.23;2.30;;;;;;;-142.08;100.00;71646.13;5050220;28;20197;-65
2022/07/07 03:57:38;;;;;;;5.20;2.33;;;;;;;-142.08;100.00;71646.13;5050453;28;20353;-66
2022/07/07 04:01:21;;;;;;;6.80;2.60;;;;;;;-142.08;100.00;71646.13;5043789;28;20193;-65
2022/07/07 04:05:04;;;;;;;9.10;2.30;;;;;;;-142.08;100.00;71646.13;5047856;28;20247;-65
2022/07/07 04:08:46;;;;;;;4.10;2.77;;;;;;;-142.08;100.00;71646.13;5043812;28;20198;-65
2022/07/07 04:12:29;;;;;;;7.80;2.40;;;;;;;-142.08;100.00;71646.13;5053083;28;20252;-65
2022/07/07 04:16:12;;;;;;;4.03;2.23;;;;;;;-142.08;100.00;71646.13;5048264;28;20264;-64
2022/07/07 04:19:55;;;;;;;5.67;2.00;;;;;;;-142.08;100.00;71646.13;5049402;28;20265;-65
2022/07/07 04:23:37;;;;;;;3.70;1.97;;;;;;;-142.08;100.00;71646.13;5046833;28;20268;-65
2022/07/07 04:27:20;;;;;;;5.03;2.10;;;;;;;-142.08;100.00;71646.13;5049917;28;20202;-65
2022/07/07 04:31:03;;;;;;;4.43;2.50;;;;;;;-142.08;100.00;71646.13;5047895;28;20213;-65
2022/07/07 04:34:46;;;;;;;4.63;1.97;;;;;;;-142.08;100.00;71646.13;5044293;28;20732;-65
2022/07/07 04:38:29;;;;;;;5.63;2.37;;;;;;;-142.08;100.00;71646.13;5044150;28;20237;-65
2022/07/07 04:42:11;;;;;;;4.00;2.23;;;;;;;-142.08;100.00;71646.13;5050476;28;20252;-65
2022/07/07 04:45:54;;;;;;;3.10;1.90;;;;;;;-142.08;100.00;71646.13;5043498;28;20273;-65
2022/07/07 04:49:37;;;;;;;2.60;1.70;;;;;;;-142.08;100.00;71646.13;5050203;28;20670;-65
2022/07/07 04:53:19;;;;;;;3.10;1.90;;;;;;;-142.08;100.00;71646.13;5046615;28;20283;-65
2022/07/07 04:57:03;;;;;;;3.93;1.70;;;;;;;-142.08;100.00;71646.13;5049949;28;20267;-65
2022/07/07 05:00:45;;;;;;;3.60;2.00;;;;;;;-142.08;100.00;71646.13;5042969;28;20205;-65
2022/07/07 05:04:28;;;;;;;4.17;1.97;;;;;;;-142.08;100.00;71646.13;5049177;28;20221;-65
2022/07/07 05:08:11;;;;;;;2.70;1.77;;;;;;;-142.08;100.00;71646.13;5049176;28;20205;-65
2022/07/07 05:11:55;;;;;;;5.27;1.90;;;;;;;-142.08;100.00;71646.13;5053883;28;20197;-65
2022/07/07 05:15:37;;;;;;;2.00;1.70;;;;;;;-142.08;100.00;71646.13;5043428;28;20285;-65
2022/07/07 05:19:20;;;;;;;3.00;1.70;;;;;;;-142.08;100.00;71646.13;5053059;28;20270;-65
2022/07/07 05:23:03;;;;;;;3.37;1.90;;;;;;;-142.08;100.00;71646.13;5044075;28;20228;-65
2022/07/07 05:26:46;;;;;;;3.20;2.03;;;;;;;-142.08;100.00;71646.13;5047523;28;20615;-65
2022/07/07 05:30:28;;;;;;;12.33;2.00;;;;;;;-142.08;100.00;71646.13;5049958;28;20252;-65
2022/07/07 05:34:11;;;;;;;4.73;1.70;;;;;;;-142.08;100.00;71646.13;5050055;28;20264;-65
2022/07/07 05:37:54;;;;;;;2.87;1.80;;;;;;;-142.08;100.00;71646.13;5042276;28;20199;-65
2022/07/07 05:41:36;;;;;;;3.00;1.87;;;;;;;-142.08;100.00;71646.13;5049230;28;20201;-65
2022/07/07 05:45:19;;;;;;;5.87;1.80;;;;;;;-142.08;100.00;71646.13;5047365;28;20275;-65
2022/07/07 05:49:02;;;;;;;2.93;1.63;;;;;;;-142.08;100.00;71646.13;5050401;28;20297;-65
2022/07/07 05:52:45;;;;;;;2.53;1.67;;;;;;;-142.08;100.00;71646.13;5031836;28;20264;-65
2022/07/07 05:56:28;;;;;;;4.67;1.73;;;;;;;-142.08;100.00;71646.13;5043931;28;20249;-65
2022/07/07 06:00:11;;;;;;;1.87;1.40;;;;;;;-142.08;100.00;71646.13;5036878;28;20305;-65
2022/07/07 06:03:57;;;;;;;4.13;1.80;;;;;;;-142.08;100.00;71646.13;5052188;28;20317;-65
2022/07/07 06:07:39;;;;;;;6.73;1.80;;;;;;;-142.08;100.00;71646.13;5053778;28;20267;-65
2022/07/07 06:11:22;;;;;;;3.33;1.50;;;;;;;-142.08;100.00;71646.13;5036734;28;20338;-65
2022/07/07 06:15:04;;;;;;;2.57;1.57;;;;;;;-142.08;100.00;71646.13;5036234;28;20272;-65
2022/07/07 06:18:47;;;;;;;4.27;1.80;;;;;;;-142.08;100.00;71646.13;5053314;28;20307;-65
2022/07/07 06:22:30;;;;;;;6.47;1.50;;;;;;;-142.08;100.00;71646.13;5051318;28;20845;-65
2022/07/07 06:26:12;;;;;;;2.70;1.73;;;;;;;-142.08;100.00;71646.13;5057223;28;20283;-65
2022/07/07 06:29:57;;;;;;;3.63;1.70;;;;;;;-142.08;100.00;71646.13;5048354;28;20275;-65
2022/07/07 06:33:39;;;;;;;6.93;1.87;;;;;;;-142.08;100.00;71646.13;5053254;28;20771;-65
2022/07/07 06:37:22;;;;;;;3.63;1.80;;;;;;;-142.08;100.00;71646.13;5049460;28;20267;-65
2022/07/07 06:41:05;;;;;;;3.97;1.80;;;;;;;-142.08;100.00;71646.13;5050937;28;20678;-65
2022/07/07 06:44:48;;;;;;;2.83;2.00;;;;;;;-142.08;100.00;71646.13;5046577;28;20209;-65
2022/07/07 06:48:31;;;;;;;3.40;1.70;;;;;;;-142.08;100.00;71646.13;5043240;28;20206;-65
2022/07/07 06:52:13;;;;;;;3.80;2.00;;;;;;;-142.08;100.00;71646.13;5050425;28;20252;-66
2022/07/07 06:55:56;;;;;;;6.03;1.67;;;;;;;-142.08;100.00;71646.13;5038191;28;20221;-66
2022/07/07 06:59:39;;;;;;;4.77;2.00;;;;;;;-142.08;100.00;71646.13;5055461;28;20911;-66
2022/07/07 07:03:22;;;;;;;3.93;1.77;;;;;;;-142.08;100.00;71646.13;5050990;28;20220;-66
2022/07/07 07:07:05;;;;;;;2.40;1.60;;;;;;;-142.08;100.00;71646.13;5050737;28;20697;-66
2022/07/07 07:10:47;;;;;;;3.73;1.60;;;;;;;-142.08;100.00;71646.13;5046480;28;20752;-66
2022/07/07 07:14:30;;;;;;;2.97;1.30;;;;;;;-142.08;100.00;71646.13;5053329;28;20197;-66
2022/07/07 07:18:13;;;;;;;4.30;1.63;;;;;;;-142.08;100.00;71646.13;5058597;28;20220;-66
2022/07/07 07:21:55;;;;;;;2.43;1.20;;;;;;;-142.08;100.00;71646.13;5049251;28;20205;-66
2022/07/07 07:25:39;;;;;;;4.43;1.50;;;;;;;-142.08;100.00;71646.13;5049964;28;20247;-66
2022/07/07 07:29:22;;;;;;;6.83;1.57;;;;;;;-142.08;100.00;71646.13;5048817;28;20226;-66
2022/07/07 07:33:05;;;;;;;4.30;1.93;;;;;;;-142.08;100.00;71646.13;5044260;28;20683;-66
2022/07/07 07:36:47;;;;;;;5.67;1.67;;;;;;;-142.08;100.00;71646.13;5052209;28;20193;-66
2022/07/07 07:40:30;;;;;;;3.97;1.30;;;;;;;-142.08;100.00;71646.13;5035253;28;20210;-66
2022/07/07 07:44:12;;;;;;;4.00;1.30;;;;;;;-142.08;100.00;71646.13;5045654;28;20728;-66
2022/07/07 07:47:56;;;;;;;2.40;1.30;;;;;;;-142.08;100.00;71646.13;5047414;28;20201;-66
2022/07/07 07:51:40;;;;;;;3.47;1.30;;;;;;;-142.08;100.00;71646.13;5056593;28;20200;-66
2022/07/07 07:55:22;;;;;;;2.17;1.17;;;;;;;-142.08;100.00;71646.13;5049063;28;20186;-66
2022/07/07 07:59:05;;;;;;;1.00;0.97;;;;;;;-142.08;100.00;71646.13;5037638;28;20221;-66
2022/07/07 08:02:48;;;;;;;3.07;1.53;;;;;;;-142.08;100.00;71646.13;5052452;28;20224;-66
2022/07/07 08:06:31;;;;;;;2.60;1.20;;;;;;;-142.08;100.00;71646.13;5057031;28;20663;-66
2022/07/07 08:10:14;;;;;;;2.80;1.33;;;;;;;-142.08;100.00;71646.13;5053343;28;20331;-66
2022/07/07 08:13:57;;;;;;;5.00;1.70;;;;;;;-142.08;100.00;71646.13;5050492;28;20634;-66
2022/07/07 08:17:40;;;;;;;1.93;1.10;;;;;;;-142.08;100.00;71646.13;5051585;28;20606;-67
2022/07/07 08:21:22;;;;;;;2.90;1.33;;;;;;;-142.08;100.00;71646.13;5052024;28;20381;-67
2022/07/07 08:25:06;;;;;;;2.27;1.10;;;;;;;-142.08;100.00;71646.13;5038298;28;20267;-66
2022/07/07 08:28:48;;;;;;;8.45;3.25;;;;;;;-142.08;100.00;71646.13;5053611;28;20209;-66
2022/07/07 08:32:31;;;;;;;2.03;1.40;;;;;;;-142.08;100.00;71646.13;5053994;28;20221;-67
2022/07/07 08:36:14;;;;;;;7.17;2.00;;;;;;;-142.08;100.00;71646.13;5050447;28;20285;-67
2022/07/07 08:39:57;;;;;;;1.55;1.30;;;;;;;-142.08;100.00;71646.13;5045342;28;20526;-67
2022/07/07 08:43:40;;;;;;;8.43;1.70;;;;;;;-142.08;100.00;71646.13;5051297;28;20201;-66
2022/07/07 08:47:24;;;;;;;3.45;1.50;;;;;;;-142.08;100.00;71646.13;5049360;28;20194;-66
2022/07/07 08:51:08;;;;;;;4.22;1.40;;;;;;;-142.08;100.00;71646.13;5048828;28;20236;-67
2022/07/07 08:54:51;;;;;;;2.85;1.48;;;;;;;-142.08;100.00;71646.13;5048080;28;20209;-67
2022/07/07 08:58:37;;;;;;;2.58;1.45;;;;;;;-142.08;100.00;71646.13;5056811;28;20584;-67
2022/07/07 09:02:20;;;;;;;5.07;1.65;;;;;;;-142.08;100.00;71646.13;5049608;28;20244;-67
2022/07/07 09:06:02;;;;;;;4.50;1.25;;;;;;;-142.08;100.00;71646.13;5057776;28;20216;-67
2022/07/07 09:09:46;;;;;;;3.05;1.23;;;;;;;-142.08;100.00;71646.13;5051553;28;20321;-67
2022/07/07 09:13:32;;;;;;;1.20;1.08;;;;;;;-142.08;100.00;71646.13;5051772;28;20198;-67
2022/07/07 09:17:33;;;;;;;2.20;1.30;;;;;;;-142.08;100.00;71646.13;5053867;28;20201;-67
2022/07/07 09:21:26;;;;;;;6.07;1.20;;;;;;;-142.08;100.00;71646.13;5046750;28;20225;-67
2022/07/07 09:25:09;;;;;;;9.50;1.65;;;;;;;-142.08;100.00;71646.13;5053785;28;20197;-67
2022/07/07 09:28:57;;;;;;;2.22;1.27;;;;;;;-142.08;100.00;71646.13;5065118;28;20611;-66
2022/07/07 09:32:57;;;;;;;4.10;1.63;;;;;;;-142.08;100.00;71646.13;5048355;28;20256;-66
2022/07/07 09:40:53;;;;;;;4.53;1.20;;;;;;;-142.08;100.00;71646.13;5057648;28;20245;-66
2022/07/07 09:44:40;;;;;;;5.70;1.23;;;;;;;-142.08;100.00;71646.13;5050233;28;20627;-67
2022/07/07 09:48:25;;;;;;;3.15;1.30;;;;;;;-142.08;100.00;71646.13;5050951;28;20212;-66
2022/07/07 09:52:16;;;;;;;3.08;1.10;;;;;;;-142.08;100.00;71646.13;5047756;28;20202;-66
2022/07/07 09:56:01;;;;;;;3.35;1.30;;;;;;;-142.08;100.00;71646.13;5053104;28;20311;-66
2022/07/07 09:59:44;;;;;;;2.47;0.90;;;;;;;-142.08;100.00;71646.13;5053576;28;20201;-66
2022/07/07 10:03:28;;;;;;;3.13;1.38;;;;;;;-142.08;100.00;71646.13;5052077;28;20204;-66
2022/07/07 10:07:11;;;;;;;5.07;1.48;;;;;;;-142.08;100.00;71646.13;5055697;28;20786;-66
2022/07/07 10:10:56;;;;;;;3.45;1.17;;;;;;;-142.08;100.00;71646.13;5054101;28;20732;-66
2022/07/07 10:14:43;;;;;;;4.85;1.50;;;;;;;-142.08;100.00;71646.13;5054596;28;20249;-65
2022/07/07 10:18:27;;;;;;;8.00;4.30;;;;;;;-142.08;100.00;71646.13;5055802;28;20194;-65
2022/07/07 10:22:12;;;;;;;3.23;1.43;;;;;;;-142.08;100.00;71646.13;5051764;28;20224;-65
2022/07/07 10:26:03;;;;;;;3.83;1.98;;;;;;;-142.08;100.00;71646.13;5049619;28;20697;-66
2022/07/07 10:30:00;;;;;;;2.33;1.33;;;;;;;-142.08;100.00;71646.13;5055350;28;20203;-66
2022/07/07 10:33:57;;;;;;;4.13;1.45;;;;;;;-142.08;100.00;71646.13;5045162;28;20231;-66
2022/07/07 10:37:47;;;;;;;3.40;1.65;;;;;;;-142.08;100.00;71646.13;5048728;28;20734;-67
2022/07/07 10:41:30;;;;;;;4.82;1.70;;;;;;;-142.08;100.00;71646.13;5056171;28;20256;-65
2022/07/07 10:45:17;;;;;;;1.90;1.27;;;;;;;-142.08;100.00;71646.13;5058067;28;20712;-65
2022/07/07 10:49:08;;;;;;;2.17;1.30;;;;;;;-142.08;100.00;71646.13;5049726;28;20596;-65
2022/07/07 10:52:52;;;;;;;2.23;1.17;;;;;;;-142.08;100.00;71646.13;5042294;28;20829;-66
2022/07/07 10:56:51;;;;;;;4.10;1.10;;;;;;;-142.08;100.00;71646.13;5043249;28;20263;-66
2022/07/07 11:01:02;;;;;;;2.47;1.23;;;;;;;-142.08;100.00;71646.13;5034082;28;20222;-66
2022/07/07 11:04:48;;;;;;;2.08;1.02;;;;;;;-142.08;100.00;71646.13;5056596;28;20224;-65
2022/07/07 11:08:38;;;;;;;4.43;1.10;;;;;;;-142.08;100.00;71646.13;5053874;28;20240;-65
2022/07/07 11:12:52;;;;;;;1.80;1.20;;;;;;;-142.08;100.00;71646.13;5049413;28;20233;-65
2022/07/07 11:16:35;;;;;;;2.30;1.00;;;;;;;-142.08;100.00;71646.13;5045066;28;20209;-66
2022/07/07 11:20:22;;;;;;;3.10;0.93;;;;;;;-142.08;100.00;71646.13;5047601;28;20244;-66
2022/07/07 11:24:16;;;;;;;1.20;0.77;;;;;;;-142.08;100.00;71646.13;5048629;28;20696;-66
2022/07/07 11:28:01;;;;;;;1.77;0.93;;;;;;;-142.08;100.00;71646.13;5051242;28;20799;-65
2022/07/07 11:31:43;;;;;;;2.50;1.10;;;;;;;-142.08;100.00;71646.13;5046584;28;20229;-66
2022/07/07 11:35:39;;;;;;;2.72;0.85;;;;;;;-142.08;100.00;71646.13;5049984;28;20690;-66
2022/07/07 11:39:26;;;;;;;2.22;1.13;;;;;;;-142.08;100.00;71646.13;5056344;28;20574;-65
2022/07/07 11:43:21;;;;;;;1.10;0.80;;;;;;;-142.08;100.00;71646.13;5048931;28;20214;-66
2022/07/07 11:47:04;;;;;;;2.42;0.85;;;;;;;-142.08;100.00;71646.13;5051012;28;20706;-65
2022/07/07 11:50:50;;;;;;;3.40;1.08;;;;;;;-142.08;100.00;71646.13;5051510;28;20268;-66
2022/07/07 11:54:41;;;;;;;3.55;1.30;;;;;;;-142.08;100.00;71646.13;5051567;28;20258;-66
2022/07/07 11:58:30;;;;;;;2.45;1.17;;;;;;;-142.08;100.00;71646.13;5052532;28;20607;-66
2022/07/07 12:02:16;;;;;;;2.65;1.23;;;;;;;-142.08;100.00;71646.13;5054638;28;20600;-66
2022/07/07 12:05:59;;;;;;;2.92;1.17;;;;;;;-142.08;100.00;71646.13;5048859;28;20206;-66
2022/07/07 12:09:45;;;;;;;2.00;1.00;;;;;;;-142.08;100.00;71646.13;5048655;28;20198;-66
2022/07/07 12:13:28;;;;;;;2.70;1.08;;;;;;;-142.08;100.00;71646.13;5057503;28;20259;-66
2022/07/07 12:17:10;;;;;;;2.85;1.05;;;;;;;-142.08;100.00;71646.13;5057658;28;20188;-66
2022/07/07 12:20:57;;;;;;;8.10;1.33;;;;;;;-142.08;100.00;71646.13;5050118;28;20229;-66
2022/07/07 12:24:41;;;;;;;3.90;1.10;;;;;;;-142.08;100.00;71646.13;5046904;28;20259;-66
2022/07/07 12:28:32;;;;;;;3.08;1.38;;;;;;;-142.08;100.00;71646.13;5036295;28;20563;-66
2022/07/07 12:32:22;;;;;;;2.60;1.33;;;;;;;-142.08;100.00;71646.13;5046992;28;20696;-66
2022/07/07 12:36:07;;;;;;;2.67;1.27;;;;;;;-142.08;100.00;71646.13;5053555;28;20621;-66
2022/07/07 12:40:02;;;;;;;2.33;1.48;;;;;;;-142.08;100.00;71646.13;5049066;28;20667;-66
2022/07/07 12:43:45;;;;;;;2.40;1.65;;;;;;;-142.08;100.00;71646.13;5051678;28;20212;-66
2022/07/07 12:47:33;;;;;;;3.65;1.35;;;;;;;-142.08;100.00;71646.13;5049712;28;20313;-66
2022/07/07 12:51:22;;;;;;;3.97;1.85;;;;;;;-142.08;100.00;71646.13;5046545;28;20221;-66
2022/07/07 12:55:06;;;;;;;1.65;1.40;;;;;;;-142.08;100.00;71646.13;5051995;28;20200;-66
2022/07/07 12:58:50;;;;;;;4.97;1.33;;;;;;;-142.08;100.00;71646.13;5058800;28;20215;-66
2022/07/07 13:02:33;;;;;;;2.83;1.33;;;;;;;-142.08;100.00;71646.13;5049690;28;20351;-66
2022/07/07 13:06:16;;;;;;;1.48;1.38;;;;;;;-142.08;100.00;71646.13;5053450;28;20217;-66
2022/07/07 13:09:58;;;;;;;7.15;2.00;;;;;;;-142.08;100.00;71646.13;5047192;28;20256;-66
2022/07/07 13:13:41;;;;;;;1.67;1.15;;;;;;;-142.08;100.00;71646.13;5044811;28;20202;-66
2022/07/07 13:17:24;;;;;;;4.57;1.40;;;;;;;-142.08;100.00;71646.13;5044206;28;20198;-65
2022/07/07 13:21:07;;;;;;;3.33;1.33;;;;;;;-142.08;100.00;71646.13;5046155;28;20725;-66
2022/07/07 13:24:50;;;;;;;3.23;1.87;;;;;;;-142.08;100.00;71646.13;5042907;28;20217;-66
2022/07/07 13:27:34;;;;;;;8.43;2.10;;;;;;;-142.08;100.00;71646.13;5035516;28;20189;-67
2022/07/07 13:30:19;;;;;;;4.40;2.73;;;;;;;-142.08;100.00;71646.13;5044139;28;20202;-70
2022/07/07 13:33:03;;;;;;;5.07;3.30;;;;;;;-142.08;100.00;71646.13;5046955;28;20282;-69
2022/07/07 13:35:47;;;;;;;9.13;4.73;;;;;;;16.89;nan;94472.91;5030097;28;20582;-67
2022/07/07 13:38:31;;;;;;;9.67;5.80;;;;;;;17.34;nan;94479.69;5051420;28;20201;-69
2022/07/07 13:41:15;;;;;;;7.77;6.73;;;;;;;16.50;nan;94496.13;5049845;28;20256;-69
2022/07/07 13:43:59;;;;;;;12.03;5.67;;;;;;;16.92;nan;94494.31;5032206;28;20217;-67
2022/07/07 13:47:40;;;;;;;15.93;7.00;;;;;;;-142.08;100.00;71646.13;5056370;28;20189;-69
2022/07/07 13:51:23;;;;;;;8.50;6.50;;;;;;;-142.08;100.00;71646.13;5049543;28;20240;-67
2022/07/07 13:55:06;;;;;;;7.67;6.60;;;;;;;-142.08;100.00;71646.13;5047077;28;20241;-67
2022/07/07 13:58:48;;;;;;;11.73;6.27;;;;;;;-142.08;100.00;71646.13;5051613;28;20201;-67
2022/07/07 14:01:49;;;;;;;7.33;5.43;;;;;;;-142.08;100.00;71646.13;5045094;28;20225;-67
2022/07/07 14:05:32;;;;;;;9.20;4.13;;;;;;;-142.08;100.00;71646.13;5053811;28;20980;-67
2022/07/07 14:08:16;;;;;;;6.70;3.80;;;;;;;-142.08;100.00;71646.13;5045775;28;20206;-66
2022/07/07 14:11:00;;;;;;;5.47;3.40;;;;;;;19.77;nan;94477.84;5049463;28;20273;-63
2022/07/07 14:13:45;;;;;;;6.80;3.53;;;;;;;20.35;nan;94481.88;5045829;28;20248;-65
2022/07/07 14:16:29;;;;;;;7.23;3.60;;;;;;;20.77;nan;94473.69;5053259;28;20305;-64
2022/07/07 14:19:13;;;;;;;5.73;3.63;;;;;;;20.33;nan;94481.78;5045777;28;20210;-65
2022/07/07 14:21:58;;;;;;;5.10;3.17;;;;;;;20.45;nan;94478.72;5050891;28;20226;-64
2022/07/07 14:24:42;;;;;;;4.20;3.37;;;;;;;21.79;nan;94467.81;5054389;28;20246;-64
2022/07/07 14:27:27;;;;;;;4.43;2.73;;;;;;;21.79;nan;94467.81;5051854;28;20278;-63
2022/07/07 14:30:11;;;;;;;4.22;2.50;;;;;;;21.48;nan;94473.75;5053107;28;20690;-62
2022/07/07 14:32:55;;;;;;;3.78;2.40;;;;;;;22.24;nan;94475.22;5048095;28;20201;-62
2022/07/07 14:35:39;;;;;;;4.75;2.45;;;;;;;23.22;nan;94457.94;5052444;28;20251;-62
2022/07/07 14:38:23;;;;;;;5.10;2.80;;;;;;;22.92;nan;94463.38;5051663;28;20209;-62
2022/07/07 14:41:07;;;;;;;7.65;2.55;;;;;;;23.41;nan;94464.97;5055446;28;20225;-63
2022/07/07 14:43:51;;;;;;;2.40;2.20;;;;;;;23.56;nan;94464.06;5048033;28;20217;-63
2022/07/07 14:46:36;;;;;;;2.13;1.92;;;;;;;23.65;nan;94462.91;5049186;28;20188;-63
2022/07/07 14:49:20;;;;;;;5.43;2.40;;;;;;;23.87;nan;94454.28;5055614;28;20224;-63
2022/07/07 14:52:05;;;;;;;2.03;1.75;;;;;;;23.01;nan;94460.81;5054066;28;20197;-63
2022/07/07 14:54:49;;;;;;;3.60;2.20;;;;;;;22.85;nan;94456.00;5039842;28;20773;-63
2022/07/07 14:57:33;;;;;;;2.70;2.20;;;;;;;23.27;nan;94453.81;5051219;28;20267;-63
2022/07/07 15:00:21;;;;;;;2.03;1.50;;;;;;;24.02;nan;94449.69;5050608;28;20710;-63
2022/07/07 15:03:05;;;;;;;3.22;1.90;;;;;;;22.93;nan;94444.84;5054606;28;20764;-64
2022/07/07 15:05:49;;;;;;;3.10;1.42;;;;;;;22.24;nan;94446.66;5053211;28;20201;-64
2022/07/07 15:08:33;;;;;;;2.60;1.60;;;;;;;22.10;nan;94444.75;5023554;28;20253;-64
2022/07/07 15:11:17;;;;;;;2.73;1.90;;;;;;;21.92;nan;94446.91;5045717;28;20201;-64
2022/07/07 15:14:02;;;;;;;3.33;2.00;;;;;;;21.78;nan;94443.56;5052420;28;20579;-64
2022/07/07 15:16:47;;;;;;;4.37;1.80;;;;;;;21.54;nan;94451.19;5051693;28;20221;-64
2022/07/07 15:19:31;;;;;;;3.57;1.77;;;;;;;21.34;nan;94454.69;5052286;28;20197;-64
2022/07/07 15:22:15;;;;;;;7.77;2.30;;;;;;;21.45;nan;94452.25;5054407;28;20252;-64
2022/07/07 15:24:59;;;;;;;4.10;2.30;;;;;;;21.20;nan;94454.13;5053637;28;20389;-64
2022/07/07 15:27:43;;;;;;;2.40;1.30;;;;;;;21.62;nan;94451.47;5037286;28;20271;-64
2022/07/07 15:30:28;;;;;;;3.40;1.50;;;;;;;21.43;nan;94455.00;5054357;28;20209;-65
2022/07/07 15:33:13;;;;;;;3.23;1.60;;;;;;;21.85;nan;94447.38;5044291;28;20290;-65
2022/07/07 15:35:57;;;;;;;3.93;1.57;;;;;;;22.74;nan;94451.34;5048780;28;20736;-65
2022/07/07 15:38:41;;;;;;;1.58;1.20;;;;;;;22.64;nan;94453.09;5049358;28;20580;-68
2022/07/07 15:41:26;;;;;;;2.88;1.52;;;;;;;22.90;nan;94456.84;5051375;28;20244;-65
2022/07/07 15:44:10;;;;;;;3.55;1.27;;;;;;;23.44;nan;94452.22;5051365;28;20714;-66
2022/07/07 15:46:54;;;;;;;2.08;1.00;;;;;;;23.15;nan;94452.69;5047742;28;20189;-65
2022/07/07 15:49:39;;;;;;;1.40;1.02;;;;;;;23.70;nan;94455.19;5051871;28;20288;-65
2022/07/07 15:52:23;;;;;;;3.33;1.33;;;;;;;22.83;nan;94458.81;5065457;28;20266;-65
2022/07/07 15:55:08;;;;;;;1.80;1.20;;;;;;;23.55;nan;94448.28;5049548;28;20212;-65
2022/07/07 15:57:53;;;;;;;2.10;1.17;;;;;;;22.71;nan;94452.66;5050812;28;20197;-65
2022/07/07 16:00:37;;;;;;;3.78;1.00;;;;;;;21.60;nan;94454.25;5049249;28;20236;-64
2022/07/07 16:03:21;;;;;;;5.17;1.10;;;;;;;21.78;nan;94449.25;5044118;28;20252;-64
2022/07/07 16:06:05;;;;;;;2.77;1.20;;;;;;;22.69;nan;94449.72;5055959;28;20197;-65
2022/07/07 16:08:50;;;;;;;1.33;0.90;;;;;;;23.10;nan;94457.53;5054450;28;20239;-65
2022/07/07 16:11:34;;;;;;;2.77;1.00;;;;;;;22.55;nan;94449.22;5056285;28;20674;-64
2022/07/07 16:14:18;;;;;;;1.02;0.82;;;;;;;23.23;nan;94441.50;5057226;28;20196;-65
2022/07/07 16:17:02;;;;;;;4.53;1.00;;;;;;;23.65;nan;94445.72;5051315;28;20582;-65
2022/07/07 16:19:47;;;;;;;3.85;0.80;;;;;;;26.05;nan;94459.25;5046080;28;20201;-65